sensor_id;sensor_type;location;lat;lon;timestamp;temperature;humidity
62912;DHT22;49111;51.028;4.218;2022-12-18T06:48:49;-3.40;99.90
62912;DHT22;49111;51.028;4.218;2022-12-18T06:51:19;-3.40;99.90
62912;DHT22;49111;51.028;4.218;2022-12-18T06:53:46;-3.40;99.90
62912;DHT22;49111;51.028;4.218;2022-12-18T06:56:12;-3.50;99.90
62912;DHT22;49111;51.028;4.218;2022-12-18T06:58:38;-3.40;99.90
62912;DHT22;49111;51.028;4.218;2022-12-18T07:01:06;-3.50;99.90
62912;DHT22;49111;51.028;4.218;2022-12-18T07:03:32;-3.40;99.90
62912;DHT22;49111;51.028;4.218;2022-12-18T07:05:58;-3.40;99.90
62912;DHT22;49111;51.028;4.218;2022-12-18T07:08:24;-3.40;99.90
62912;DHT22;49111;51.028;4.218;2022-12-18T07:10:50;-3.40;99.90
62912;DHT22;49111;51.028;4.218;2022-12-18T07:13:16;-3.30;99.90
62912;DHT22;49111;51.028;4.218;2022-12-18T07:15:43;-3.30;99.90
62912;DHT22;49111;51.028;4.218;2022-12-18T07:18:09;-3.30;99.90
62912;DHT22;49111;51.028;4.218;2022-12-18T07:20:35;-3.30;99.90
62912;DHT22;49111;51.028;4.218;2022-12-18T07:23:04;-3.30;99.90
62912;DHT22;49111;51.028;4.218;2022-12-18T07:25:34;-3.20;99.90
62912;DHT22;49111;51.028;4.218;2022-12-18T07:28:00;-3.20;99.90
62912;DHT22;49111;51.028;4.218;2022-12-18T07:30:26;-3.20;99.90
62912;DHT22;49111;51.028;4.218;2022-12-18T07:32:51;-3.20;99.90
62912;DHT22;49111;51.028;4.218;2022-12-18T07:35:17;-3.30;99.90
62912;DHT22;49111;51.028;4.218;2022-12-18T07:37:44;-3.30;99.90
62912;DHT22;49111;51.028;4.218;2022-12-18T07:40:10;-3.30;99.90
62912;DHT22;49111;51.028;4.218;2022-12-18T07:42:36;-3.30;99.90
62912;DHT22;49111;51.028;4.218;2022-12-18T07:45:03;-3.30;99.90
62912;DHT22;49111;51.028;4.218;2022-12-18T07:47:29;-3.30;99.90
62912;DHT22;49111;51.028;4.218;2022-12-18T07:49:55;-3.30;99.90
62912;DHT22;49111;51.028;4.218;2022-12-18T07:52:21;-3.30;99.90
62912;DHT22;49111;51.028;4.218;2022-12-18T07:54:47;-3.20;99.90
62912;DHT22;49111;51.028;4.218;2022-12-18T07:57:16;-3.20;99.90
62912;DHT22;49111;51.028;4.218;2022-12-18T07:59:42;-3.20;99.90
62912;DHT22;49111;51.028;4.218;2022-12-18T08:02:08;-3.20;99.90
62912;DHT22;49111;51.028;4.218;2022-12-18T08:04:33;-3.10;99.90
62912;DHT22;49111;51.028;4.218;2022-12-18T08:06:59;-3.10;99.90
62912;DHT22;49111;51.028;4.218;2022-12-18T08:09:25;-3.10;99.90
62912;DHT22;49111;51.028;4.218;2022-12-18T08:11:50;-3.10;99.90
62912;DHT22;49111;51.028;4.218;2022-12-18T08:14:16;-3.00;99.90
62912;DHT22;49111;51.028;4.218;2022-12-18T08:16:42;-3.00;99.90
62912;DHT22;49111;51.028;4.218;2022-12-18T08:19:09;-3.00;99.90
62912;DHT22;49111;51.028;4.218;2022-12-18T08:21:35;-2.90;99.90
62912;DHT22;49111;51.028;4.218;2022-12-18T08:24:02;-2.90;99.90
62912;DHT22;49111;51.028;4.218;2022-12-18T08:26:30;-2.90;99.90
62912;DHT22;49111;51.028;4.218;2022-12-18T08:28:57;-2.80;99.90
62912;DHT22;49111;51.028;4.218;2022-12-18T08:31:24;-2.80;99.90
62912;DHT22;49111;51.028;4.218;2022-12-18T08:33:52;-2.80;99.90
62912;DHT22;49111;51.028;4.218;2022-12-18T08:36:19;-2.80;99.90
62912;DHT22;49111;51.028;4.218;2022-12-18T08:38:45;-2.80;99.90
62912;DHT22;49111;51.028;4.218;2022-12-18T08:41:14;-2.60;99.90
62912;DHT22;49111;51.028;4.218;2022-12-18T08:43:40;-2.40;99.90
62912;DHT22;49111;51.028;4.218;2022-12-18T08:46:26;-2.60;99.90
62912;DHT22;49111;51.028;4.218;2022-12-18T08:48:53;-2.60;99.90
62912;DHT22;49111;51.028;4.218;2022-12-18T08:51:19;-2.50;99.90
62912;DHT22;49111;51.028;4.218;2022-12-18T08:53:46;-2.50;99.90
62912;DHT22;49111;51.028;4.218;2022-12-18T08:56:13;-2.50;99.90
62912;DHT22;49111;51.028;4.218;2022-12-18T08:58:39;-2.40;99.90
62912;DHT22;49111;51.028;4.218;2022-12-18T09:01:07;-3.30;99.90
62912;DHT22;49111;51.028;4.218;2022-12-18T09:03:34;-2.20;99.90
62912;DHT22;49111;51.028;4.218;2022-12-18T09:06:01;-2.20;99.90
62912;DHT22;49111;51.028;4.218;2022-12-18T09:08:27;-2.00;99.90
62912;DHT22;49111;51.028;4.218;2022-12-18T09:10:53;-2.20;99.90
62912;DHT22;49111;51.028;4.218;2022-12-18T09:13:19;-2.10;99.90
62912;DHT22;49111;51.028;4.218;2022-12-18T09:15:46;-2.00;99.90
62912;DHT22;49111;51.028;4.218;2022-12-18T09:18:14;-2.00;99.90
62912;DHT22;49111;51.028;4.218;2022-12-18T09:20:40;-1.90;99.90
62912;DHT22;49111;51.028;4.218;2022-12-18T09:23:06;-1.80;99.90
62912;DHT22;49111;51.028;4.218;2022-12-18T09:25:33;-1.70;99.90
62912;DHT22;49111;51.028;4.218;2022-12-18T09:28:14;-2.30;99.90
62912;DHT22;49111;51.028;4.218;2022-12-18T09:30:42;-1.40;99.90
62912;DHT22;49111;51.028;4.218;2022-12-18T09:33:09;-1.30;99.90
62912;DHT22;49111;51.028;4.218;2022-12-18T09:35:39;-0.20;99.90
62912;DHT22;49111;51.028;4.218;2022-12-18T09:38:05;-1.20;99.90
62912;DHT22;49111;51.028;4.218;2022-12-18T09:40:56;-1.20;99.90
62912;DHT22;49111;51.028;4.218;2022-12-18T09:43:46;-1.20;99.90
62912;DHT22;49111;51.028;4.218;2022-12-18T09:46:21;-1.10;99.90
62912;DHT22;49111;51.028;4.218;2022-12-18T09:48:52;-1.00;99.90
62912;DHT22;49111;51.028;4.218;2022-12-18T09:51:32;-0.90;99.90
62912;DHT22;49111;51.028;4.218;2022-12-18T09:54:03;-0.90;99.90
62912;DHT22;49111;51.028;4.218;2022-12-18T09:56:35;-0.90;99.90
62912;DHT22;49111;51.028;4.218;2022-12-18T09:59:04;-0.90;99.90
62912;DHT22;49111;51.028;4.218;2022-12-18T10:01:31;-0.80;99.90
62912;DHT22;49111;51.028;4.218;2022-12-18T10:03:57;-0.70;99.90
62912;DHT22;49111;51.028;4.218;2022-12-18T10:07:18;0.30;99.90
62912;DHT22;49111;51.028;4.218;2022-12-18T10:17:07;-0.40;99.90
62912;DHT22;49111;51.028;4.218;2022-12-18T10:19:45;-0.40;99.90
62912;DHT22;49111;51.028;4.218;2022-12-18T10:25:25;-0.30;99.90
62912;DHT22;49111;51.028;4.218;2022-12-18T10:27:57;-0.30;99.90
62912;DHT22;49111;51.028;4.218;2022-12-18T10:30:25;-0.20;99.90
62912;DHT22;49111;51.028;4.218;2022-12-18T10:32:52;-0.10;99.90
62912;DHT22;49111;51.028;4.218;2022-12-18T10:35:22;-0.10;99.90
62912;DHT22;49111;51.028;4.218;2022-12-18T10:38:21;-0.90;99.90
62912;DHT22;49111;51.028;4.218;2022-12-18T10:41:22;0.00;99.90
62912;DHT22;49111;51.028;4.218;2022-12-18T10:43:44;-0.10;99.90
62912;DHT22;49111;51.028;4.218;2022-12-18T10:54:18;0.90;99.90
62912;DHT22;49111;51.028;4.218;2022-12-18T10:56:46;1.10;99.90
62912;DHT22;49111;51.028;4.218;2022-12-18T10:59:16;1.10;99.90
62912;DHT22;49111;51.028;4.218;2022-12-18T11:01:54;1.20;99.90
62912;DHT22;49111;51.028;4.218;2022-12-18T11:04:33;1.30;99.90
62912;DHT22;49111;51.028;4.218;2022-12-18T11:07:08;1.40;99.90
62912;DHT22;49111;51.028;4.218;2022-12-18T11:09:37;1.40;99.90
62912;DHT22;49111;51.028;4.218;2022-12-18T11:12:17;1.50;99.90
62912;DHT22;49111;51.028;4.218;2022-12-18T11:14:47;1.60;99.90
62912;DHT22;49111;51.028;4.218;2022-12-18T11:17:30;1.60;99.90
62912;DHT22;49111;51.028;4.218;2022-12-18T11:20:01;1.60;99.90
62912;DHT22;49111;51.028;4.218;2022-12-18T11:22:33;1.50;99.90
62912;DHT22;49111;51.028;4.218;2022-12-18T11:25:26;1.50;99.90
62912;DHT22;49111;51.028;4.218;2022-12-18T11:28:04;1.50;99.90
62912;DHT22;49111;51.028;4.218;2022-12-18T11:30:32;1.50;99.90
62912;DHT22;49111;51.028;4.218;2022-12-18T11:33:03;1.40;99.90
62912;DHT22;49111;51.028;4.218;2022-12-18T11:36:03;1.50;99.90
62912;DHT22;49111;51.028;4.218;2022-12-18T11:38:39;1.60;99.90
62912;DHT22;49111;51.028;4.218;2022-12-18T11:44:18;1.70;99.90
62912;DHT22;49111;51.028;4.218;2022-12-18T11:46:55;1.70;99.90
62912;DHT22;49111;51.028;4.218;2022-12-18T11:49:33;1.70;99.90
62912;DHT22;49111;51.028;4.218;2022-12-18T11:55:00;1.70;99.90
62912;DHT22;49111;51.028;4.218;2022-12-18T11:57:47;2.20;99.90
62912;DHT22;49111;51.028;4.218;2022-12-18T12:00:21;1.70;99.90
62912;DHT22;49111;51.028;4.218;2022-12-18T12:06:15;1.80;99.90
62912;DHT22;49111;51.028;4.218;2022-12-18T12:11:43;1.80;99.90
62912;DHT22;49111;51.028;4.218;2022-12-18T12:14:30;1.80;99.90
62912;DHT22;49111;51.028;4.218;2022-12-18T12:20:07;1.90;99.90
62912;DHT22;49111;51.028;4.218;2022-12-18T12:31:25;2.10;99.90
62912;DHT22;49111;51.028;4.218;2022-12-18T12:37:11;2.20;99.90
62912;DHT22;49111;51.028;4.218;2022-12-18T12:39:40;2.20;99.90
62912;DHT22;49111;51.028;4.218;2022-12-18T12:42:23;2.30;99.90
62912;DHT22;49111;51.028;4.218;2022-12-18T12:45:23;2.30;99.90
62912;DHT22;49111;51.028;4.218;2022-12-18T12:47:53;2.10;99.90
62912;DHT22;49111;51.028;4.218;2022-12-18T12:50:21;2.50;99.90
62912;DHT22;49111;51.028;4.218;2022-12-18T12:52:55;2.30;99.90
62912;DHT22;49111;51.028;4.218;2022-12-18T12:55:25;2.30;99.90
62912;DHT22;49111;51.028;4.218;2022-12-18T13:01:02;2.20;99.90
62912;DHT22;49111;51.028;4.218;2022-12-18T13:03:55;2.40;99.90
62912;DHT22;49111;51.028;4.218;2022-12-18T13:06:37;2.30;99.90
62912;DHT22;49111;51.028;4.218;2022-12-18T13:09:05;2.30;99.90
62912;DHT22;49111;51.028;4.218;2022-12-18T13:11:42;2.30;99.90
62912;DHT22;49111;51.028;4.218;2022-12-18T13:14:31;2.20;99.90
62912;DHT22;49111;51.028;4.218;2022-12-18T13:17:26;2.30;99.90
62912;DHT22;49111;51.028;4.218;2022-12-18T13:20:14;2.50;99.90
62912;DHT22;49111;51.028;4.218;2022-12-18T13:22:44;2.50;99.90
62912;DHT22;49111;51.028;4.218;2022-12-18T13:25:37;2.50;99.90
62912;DHT22;49111;51.028;4.218;2022-12-18T13:28:14;2.40;99.90
62912;DHT22;49111;51.028;4.218;2022-12-18T13:41:01;2.40;99.90
62912;DHT22;49111;51.028;4.218;2022-12-18T13:43:28;2.40;99.90
62912;DHT22;49111;51.028;4.218;2022-12-18T13:46:05;2.80;99.90
62912;DHT22;49111;51.028;4.218;2022-12-18T13:48:36;2.40;99.90
62912;DHT22;49111;51.028;4.218;2022-12-18T13:51:07;2.50;99.90
62912;DHT22;49111;51.028;4.218;2022-12-18T13:56:03;2.60;99.90
62912;DHT22;49111;51.028;4.218;2022-12-18T13:58:29;2.70;99.90
62912;DHT22;49111;51.028;4.218;2022-12-18T14:00:55;2.70;99.90
62912;DHT22;49111;51.028;4.218;2022-12-18T14:03:26;2.70;99.90
62912;DHT22;49111;51.028;4.218;2022-12-18T14:05:58;2.80;99.90
62912;DHT22;49111;51.028;4.218;2022-12-18T14:08:30;3.20;99.90
62912;DHT22;49111;51.028;4.218;2022-12-18T14:10:57;3.40;99.90
62912;DHT22;49111;51.028;4.218;2022-12-18T14:13:29;2.90;99.90
62912;DHT22;49111;51.028;4.218;2022-12-18T14:15:56;2.90;99.90
62912;DHT22;49111;51.028;4.218;2022-12-18T14:20:50;3.00;99.90
62912;DHT22;49111;51.028;4.218;2022-12-18T14:26:02;2.90;99.90
62912;DHT22;49111;51.028;4.218;2022-12-18T14:28:29;2.80;99.90
62912;DHT22;49111;51.028;4.218;2022-12-18T14:30:55;2.60;99.90
62912;DHT22;49111;51.028;4.218;2022-12-18T14:33:26;3.20;99.90
62912;DHT22;49111;51.028;4.218;2022-12-18T14:36:05;2.40;99.90
62912;DHT22;49111;51.028;4.218;2022-12-18T14:38:38;2.30;99.90
62912;DHT22;49111;51.028;4.218;2022-12-18T14:41:13;2.70;99.90
62912;DHT22;49111;51.028;4.218;2022-12-18T14:43:41;2.60;99.90
62912;DHT22;49111;51.028;4.218;2022-12-18T14:46:36;2.30;99.90
62912;DHT22;49111;51.028;4.218;2022-12-18T14:49:33;2.20;99.90
62912;DHT22;49111;51.028;4.218;2022-12-18T14:52:05;2.20;99.90
62912;DHT22;49111;51.028;4.218;2022-12-18T14:54:32;2.30;99.90
62912;DHT22;49111;51.028;4.218;2022-12-18T14:57:25;2.90;99.90
62912;DHT22;49111;51.028;4.218;2022-12-18T14:59:52;2.30;99.90
62912;DHT22;49111;51.028;4.218;2022-12-18T15:02:27;2.30;99.90
62912;DHT22;49111;51.028;4.218;2022-12-18T15:05:00;2.40;99.90
62912;DHT22;49111;51.028;4.218;2022-12-18T15:07:26;2.50;99.90
62912;DHT22;49111;51.028;4.218;2022-12-18T15:10:14;2.60;99.90
62912;DHT22;49111;51.028;4.218;2022-12-18T15:12:46;2.60;99.90
62912;DHT22;49111;51.028;4.218;2022-12-18T15:20:49;2.60;99.90
62912;DHT22;49111;51.028;4.218;2022-12-18T15:23:35;2.80;99.90
62912;DHT22;49111;51.028;4.218;2022-12-18T15:26:06;2.60;99.90
62912;DHT22;49111;51.028;4.218;2022-12-18T15:28:50;2.60;99.90
62912;DHT22;49111;51.028;4.218;2022-12-18T15:33:44;2.60;99.90
62912;DHT22;49111;51.028;4.218;2022-12-18T15:36:16;2.90;99.90
62912;DHT22;49111;51.028;4.218;2022-12-18T15:38:46;3.10;99.90
62912;DHT22;49111;51.028;4.218;2022-12-18T15:41:21;2.60;99.90
62912;DHT22;49111;51.028;4.218;2022-12-18T15:43:49;2.60;99.90
62912;DHT22;49111;51.028;4.218;2022-12-18T15:46:20;3.30;99.90
62912;DHT22;49111;51.028;4.218;2022-12-18T15:48:51;2.70;99.90
62912;DHT22;49111;51.028;4.218;2022-12-18T15:51:27;2.80;99.90
62912;DHT22;49111;51.028;4.218;2022-12-18T15:53:56;2.90;99.90
62912;DHT22;49111;51.028;4.218;2022-12-18T15:56:23;2.90;99.90
62912;DHT22;49111;51.028;4.218;2022-12-18T15:59:17;3.00;99.90
62912;DHT22;49111;51.028;4.218;2022-12-18T16:01:46;3.50;99.90
62912;DHT22;49111;51.028;4.218;2022-12-18T16:04:13;3.30;99.90
62912;DHT22;49111;51.028;4.218;2022-12-18T16:06:39;3.10;99.90
62912;DHT22;49111;51.028;4.218;2022-12-18T16:09:05;3.00;99.90
62912;DHT22;49111;51.028;4.218;2022-12-18T16:11:33;3.00;99.90
62912;DHT22;49111;51.028;4.218;2022-12-18T16:14:16;3.10;99.90
62912;DHT22;49111;51.028;4.218;2022-12-18T16:16:43;3.10;99.90
62912;DHT22;49111;51.028;4.218;2022-12-18T16:19:08;3.10;99.90
62912;DHT22;49111;51.028;4.218;2022-12-18T16:21:34;3.10;99.90
62912;DHT22;49111;51.028;4.218;2022-12-18T16:24:00;3.20;99.90
62912;DHT22;49111;51.028;4.218;2022-12-18T16:26:26;3.30;99.90
62912;DHT22;49111;51.028;4.218;2022-12-18T16:28:52;4.10;99.90
62912;DHT22;49111;51.028;4.218;2022-12-18T16:31:19;3.40;99.90
62912;DHT22;49111;51.028;4.218;2022-12-18T16:33:44;3.40;99.90
62912;DHT22;49111;51.028;4.218;2022-12-18T16:36:10;3.30;99.90
62912;DHT22;49111;51.028;4.218;2022-12-18T16:38:36;3.20;99.90
62912;DHT22;49111;51.028;4.218;2022-12-18T16:41:02;3.20;99.90
62912;DHT22;49111;51.028;4.218;2022-12-18T16:43:49;3.20;99.90
62912;DHT22;49111;51.028;4.218;2022-12-18T16:46:15;3.10;99.90
62912;DHT22;49111;51.028;4.218;2022-12-18T16:48:40;3.10;99.90
62912;DHT22;49111;51.028;4.218;2022-12-18T16:51:06;3.10;99.90
62912;DHT22;49111;51.028;4.218;2022-12-18T16:53:32;2.90;99.90
62912;DHT22;49111;51.028;4.218;2022-12-18T16:55:58;3.60;99.90
62912;DHT22;49111;51.028;4.218;2022-12-18T16:58:24;3.00;99.90
62912;DHT22;49111;51.028;4.218;2022-12-18T17:00:50;3.40;99.90
62912;DHT22;49111;51.028;4.218;2022-12-18T17:03:15;3.10;99.90
62912;DHT22;49111;51.028;4.218;2022-12-18T17:05:41;3.30;99.90
62912;DHT22;49111;51.028;4.218;2022-12-18T17:08:07;3.30;99.90
62912;DHT22;49111;51.028;4.218;2022-12-18T17:10:34;3.50;99.90
62912;DHT22;49111;51.028;4.218;2022-12-18T17:13:00;3.30;99.90
62912;DHT22;49111;51.028;4.218;2022-12-18T17:15:26;3.20;99.90
62912;DHT22;49111;51.028;4.218;2022-12-18T17:17:52;3.40;99.90
62912;DHT22;49111;51.028;4.218;2022-12-18T17:20:17;3.50;99.90
62912;DHT22;49111;51.028;4.218;2022-12-18T17:22:43;3.50;99.90
62912;DHT22;49111;51.028;4.218;2022-12-18T17:25:09;3.60;99.90
62912;DHT22;49111;51.028;4.218;2022-12-18T17:27:35;3.70;99.90
62912;DHT22;49111;51.028;4.218;2022-12-18T17:30:01;3.70;99.90
62912;DHT22;49111;51.028;4.218;2022-12-18T17:32:27;3.60;99.90
62912;DHT22;49111;51.028;4.218;2022-12-18T17:34:52;3.70;99.90
62912;DHT22;49111;51.028;4.218;2022-12-18T17:37:18;3.70;99.90
62912;DHT22;49111;51.028;4.218;2022-12-18T17:39:44;3.70;99.90
62912;DHT22;49111;51.028;4.218;2022-12-18T17:42:12;3.70;99.90
62912;DHT22;49111;51.028;4.218;2022-12-18T17:44:39;3.60;99.90
62912;DHT22;49111;51.028;4.218;2022-12-18T17:47:07;3.60;99.90
62912;DHT22;49111;51.028;4.218;2022-12-18T17:49:35;3.60;99.90
62912;DHT22;49111;51.028;4.218;2022-12-18T17:52:01;3.60;99.90
62912;DHT22;49111;51.028;4.218;2022-12-18T17:54:27;3.60;99.90
62912;DHT22;49111;51.028;4.218;2022-12-18T17:56:53;3.60;99.90
62912;DHT22;49111;51.028;4.218;2022-12-18T17:59:18;3.60;99.90
62912;DHT22;49111;51.028;4.218;2022-12-18T18:01:44;3.50;99.90
62912;DHT22;49111;51.028;4.218;2022-12-18T18:04:10;3.60;99.90
62912;DHT22;49111;51.028;4.218;2022-12-18T18:06:36;3.50;99.90
62912;DHT22;49111;51.028;4.218;2022-12-18T18:09:01;3.60;99.90
62912;DHT22;49111;51.028;4.218;2022-12-18T18:11:27;3.50;99.90
62912;DHT22;49111;51.028;4.218;2022-12-18T18:14:28;3.50;99.90
62912;DHT22;49111;51.028;4.218;2022-12-18T18:16:54;3.50;99.90
62912;DHT22;49111;51.028;4.218;2022-12-18T18:19:22;3.50;99.90
62912;DHT22;49111;51.028;4.218;2022-12-18T18:21:49;3.50;99.90
62912;DHT22;49111;51.028;4.218;2022-12-18T18:24:18;3.50;99.90
62912;DHT22;49111;51.028;4.218;2022-12-18T18:26:45;3.50;99.90
62912;DHT22;49111;51.028;4.218;2022-12-18T18:29:17;3.40;99.90
62912;DHT22;49111;51.028;4.218;2022-12-18T18:31:43;3.40;99.90
62912;DHT22;49111;51.028;4.218;2022-12-18T18:34:14;3.60;99.90
62912;DHT22;49111;51.028;4.218;2022-12-18T18:36:40;3.90;99.90
62912;DHT22;49111;51.028;4.218;2022-12-18T18:39:07;3.50;99.90
62912;DHT22;49111;51.028;4.218;2022-12-18T18:41:33;3.50;99.90
62912;DHT22;49111;51.028;4.218;2022-12-18T18:43:59;3.60;99.90
62912;DHT22;49111;51.028;4.218;2022-12-18T18:46:25;3.50;99.90
62912;DHT22;49111;51.028;4.218;2022-12-18T18:48:52;3.50;99.90
62912;DHT22;49111;51.028;4.218;2022-12-18T18:51:19;3.50;99.90
62912;DHT22;49111;51.028;4.218;2022-12-18T18:53:46;3.60;99.90
62912;DHT22;49111;51.028;4.218;2022-12-18T18:56:14;3.50;99.90
62912;DHT22;49111;51.028;4.218;2022-12-18T18:58:41;3.60;99.90
62912;DHT22;49111;51.028;4.218;2022-12-18T19:01:18;3.50;99.90
62912;DHT22;49111;51.028;4.218;2022-12-18T19:03:45;3.60;99.90
62912;DHT22;49111;51.028;4.218;2022-12-18T19:06:15;4.10;99.90
62912;DHT22;49111;51.028;4.218;2022-12-18T19:08:41;3.60;99.90
62912;DHT22;49111;51.028;4.218;2022-12-18T19:11:08;3.70;99.90
62912;DHT22;49111;51.028;4.218;2022-12-18T19:13:56;3.70;99.90
62912;DHT22;49111;51.028;4.218;2022-12-18T19:16:22;3.80;99.90
62912;DHT22;49111;51.028;4.218;2022-12-18T19:18:49;3.80;99.90
62912;DHT22;49111;51.028;4.218;2022-12-18T19:21:48;3.80;99.90
62912;DHT22;49111;51.028;4.218;2022-12-18T19:24:18;3.80;99.90
62912;DHT22;49111;51.028;4.218;2022-12-18T19:27:15;3.70;99.90
